sensor_id;sensor_type;location;lat;lon;timestamp;temperature;humidity
57106;DHT22;62662;56.788;23.942;2022-09-01T00:00:46;10.50;99.90
57106;DHT22;62662;56.788;23.942;2022-09-01T00:03:20;10.60;99.90
57106;DHT22;62662;56.788;23.942;2022-09-01T00:05:50;10.70;99.90
57106;DHT22;62662;56.788;23.942;2022-09-01T00:08:21;10.60;99.90
57106;DHT22;62662;56.788;23.942;2022-09-01T00:13:25;10.50;99.90
57106;DHT22;62662;56.788;23.942;2022-09-01T00:15:53;10.60;99.90
57106;DHT22;62662;56.788;23.942;2022-09-01T00:18:21;10.60;99.90
57106;DHT22;62662;56.788;23.942;2022-09-01T00:20:48;10.30;99.90
57106;DHT22;62662;56.788;23.942;2022-09-01T00:23:16;10.60;99.90
57106;DHT22;62662;56.788;23.942;2022-09-01T00:25:43;10.60;99.90
57106;DHT22;62662;56.788;23.942;2022-09-01T00:28:11;10.60;99.90
57106;DHT22;62662;56.788;23.942;2022-09-01T00:30:39;10.80;99.90
57106;DHT22;62662;56.788;23.942;2022-09-01T00:33:07;10.50;99.90
57106;DHT22;62662;56.788;23.942;2022-09-01T00:35:35;10.60;99.90
57106;DHT22;62662;56.788;23.942;2022-09-01T00:38:04;10.60;99.90
57106;DHT22;62662;56.788;23.942;2022-09-01T00:40:37;10.20;99.90
57106;DHT22;62662;56.788;23.942;2022-09-01T00:43:13;10.50;99.90
57106;DHT22;62662;56.788;23.942;2022-09-01T00:45:46;10.30;99.90
57106;DHT22;62662;56.788;23.942;2022-09-01T00:48:17;10.60;99.90
57106;DHT22;62662;56.788;23.942;2022-09-01T00:50:47;10.40;99.90
57106;DHT22;62662;56.788;23.942;2022-09-01T00:53:17;10.50;99.90
57106;DHT22;62662;56.788;23.942;2022-09-01T00:55:44;10.30;99.90
57106;DHT22;62662;56.788;23.942;2022-09-01T01:03:41;10.40;99.90
57106;DHT22;62662;56.788;23.942;2022-09-01T01:08:59;10.30;99.90
57106;DHT22;62662;56.788;23.942;2022-09-01T01:11:30;10.20;99.90
57106;DHT22;62662;56.788;23.942;2022-09-01T01:14:07;10.30;99.90
57106;DHT22;62662;56.788;23.942;2022-09-01T01:16:44;10.40;99.90
57106;DHT22;62662;56.788;23.942;2022-09-01T01:19:44;10.30;99.90
57106;DHT22;62662;56.788;23.942;2022-09-01T01:22:40;10.10;99.90
57106;DHT22;62662;56.788;23.942;2022-09-01T01:25:45;10.10;99.90
57106;DHT22;62662;56.788;23.942;2022-09-01T01:28:26;10.10;99.90
57106;DHT22;62662;56.788;23.942;2022-09-01T01:31:02;10.00;99.90
57106;DHT22;62662;56.788;23.942;2022-09-01T01:33:36;10.10;99.90
57106;DHT22;62662;56.788;23.942;2022-09-01T01:36:11;10.10;99.90
57106;DHT22;62662;56.788;23.942;2022-09-01T01:41:25;10.00;99.90
57106;DHT22;62662;56.788;23.942;2022-09-01T01:43:53;10.00;99.90
57106;DHT22;62662;56.788;23.942;2022-09-01T01:46:20;10.00;99.90
57106;DHT22;62662;56.788;23.942;2022-09-01T01:48:49;10.00;99.90
57106;DHT22;62662;56.788;23.942;2022-09-01T01:51:17;10.00;99.90
57106;DHT22;62662;56.788;23.942;2022-09-01T01:53:47;10.00;99.90
57106;DHT22;62662;56.788;23.942;2022-09-01T01:56:19;10.10;99.90
57106;DHT22;62662;56.788;23.942;2022-09-01T01:58:46;10.10;99.90
57106;DHT22;62662;56.788;23.942;2022-09-01T02:01:13;10.00;99.90
57106;DHT22;62662;56.788;23.942;2022-09-01T02:03:43;9.90;99.90
57106;DHT22;62662;56.788;23.942;2022-09-01T02:06:11;10.00;99.90
57106;DHT22;62662;56.788;23.942;2022-09-01T02:08:38;10.00;99.90
57106;DHT22;62662;56.788;23.942;2022-09-01T02:11:07;9.90;99.90
57106;DHT22;62662;56.788;23.942;2022-09-01T02:13:37;9.90;99.90
57106;DHT22;62662;56.788;23.942;2022-09-01T02:16:09;9.90;99.90
57106;DHT22;62662;56.788;23.942;2022-09-01T02:18:44;9.80;99.90
57106;DHT22;62662;56.788;23.942;2022-09-01T02:21:17;9.80;99.90
57106;DHT22;62662;56.788;23.942;2022-09-01T02:23:54;9.90;99.90
57106;DHT22;62662;56.788;23.942;2022-09-01T02:26:32;9.70;99.90
57106;DHT22;62662;56.788;23.942;2022-09-01T02:29:05;9.70;99.90
57106;DHT22;62662;56.788;23.942;2022-09-01T02:31:34;9.70;99.90
57106;DHT22;62662;56.788;23.942;2022-09-01T02:34:06;9.70;99.90
57106;DHT22;62662;56.788;23.942;2022-09-01T02:36:45;9.60;99.90
57106;DHT22;62662;56.788;23.942;2022-09-01T02:39:23;9.90;99.90
57106;DHT22;62662;56.788;23.942;2022-09-01T02:41:52;9.80;99.90
57106;DHT22;62662;56.788;23.942;2022-09-01T02:44:20;9.80;99.90
57106;DHT22;62662;56.788;23.942;2022-09-01T02:46:49;9.80;99.90
57106;DHT22;62662;56.788;23.942;2022-09-01T02:49:20;9.70;99.90
57106;DHT22;62662;56.788;23.942;2022-09-01T02:51:51;9.80;99.90
57106;DHT22;62662;56.788;23.942;2022-09-01T02:54:21;9.50;99.90
57106;DHT22;62662;56.788;23.942;2022-09-01T02:56:52;9.70;99.90
57106;DHT22;62662;56.788;23.942;2022-09-01T02:59:23;9.90;99.90
57106;DHT22;62662;56.788;23.942;2022-09-01T03:01:53;9.90;99.90
57106;DHT22;62662;56.788;23.942;2022-09-01T03:04:21;9.40;99.90
57106;DHT22;62662;56.788;23.942;2022-09-01T03:12:20;9.80;99.90
57106;DHT22;62662;56.788;23.942;2022-09-01T03:14:50;9.80;99.90
57106;DHT22;62662;56.788;23.942;2022-09-01T03:17:18;9.90;99.90
57106;DHT22;62662;56.788;23.942;2022-09-01T03:22:34;10.00;99.90
57106;DHT22;62662;56.788;23.942;2022-09-01T03:25:02;10.10;99.90
57106;DHT22;62662;56.788;23.942;2022-09-01T03:30:06;9.90;99.90
57106;DHT22;62662;56.788;23.942;2022-09-01T03:32:37;9.80;99.90
57106;DHT22;62662;56.788;23.942;2022-09-01T03:35:08;9.80;99.90
57106;DHT22;62662;56.788;23.942;2022-09-01T03:37:38;9.70;99.90
57106;DHT22;62662;56.788;23.942;2022-09-01T03:40:13;9.70;99.90
57106;DHT22;62662;56.788;23.942;2022-09-01T03:42:44;9.60;99.90
57106;DHT22;62662;56.788;23.942;2022-09-01T03:45:12;9.30;99.90
57106;DHT22;62662;56.788;23.942;2022-09-01T03:47:42;9.30;99.90
57106;DHT22;62662;56.788;23.942;2022-09-01T03:50:15;9.40;99.90
57106;DHT22;62662;56.788;23.942;2022-09-01T03:52:57;9.60;99.90
57106;DHT22;62662;56.788;23.942;2022-09-01T03:55:29;9.70;99.90
57106;DHT22;62662;56.788;23.942;2022-09-01T03:58:04;9.80;99.90
57106;DHT22;62662;56.788;23.942;2022-09-01T04:00:48;10.00;99.90
57106;DHT22;62662;56.788;23.942;2022-09-01T04:03:17;10.00;99.90
57106;DHT22;62662;56.788;23.942;2022-09-01T04:05:55;10.20;99.90
57106;DHT22;62662;56.788;23.942;2022-09-01T04:08:26;10.50;99.90
57106;DHT22;62662;56.788;23.942;2022-09-01T04:11:04;10.20;99.90
57106;DHT22;62662;56.788;23.942;2022-09-01T04:13:39;10.00;99.90
57106;DHT22;62662;56.788;23.942;2022-09-01T04:16:17;10.20;99.90
57106;DHT22;62662;56.788;23.942;2022-09-01T04:19:07;10.30;99.90
57106;DHT22;62662;56.788;23.942;2022-09-01T04:24:50;10.60;99.90
57106;DHT22;62662;56.788;23.942;2022-09-01T04:30:31;10.70;99.90
57106;DHT22;62662;56.788;23.942;2022-09-01T04:41:49;10.70;99.90
57106;DHT22;62662;56.788;23.942;2022-09-01T04:44:17;10.70;99.90
57106;DHT22;62662;56.788;23.942;2022-09-01T04:46:49;10.70;99.90
57106;DHT22;62662;56.788;23.942;2022-09-01T04:55:49;10.80;99.90
57106;DHT22;62662;56.788;23.942;2022-09-01T05:10:04;11.00;99.90
57106;DHT22;62662;56.788;23.942;2022-09-01T05:12:33;11.10;99.90
57106;DHT22;62662;56.788;23.942;2022-09-01T05:15:11;10.90;99.90
57106;DHT22;62662;56.788;23.942;2022-09-01T05:20:17;10.90;99.90
57106;DHT22;62662;56.788;23.942;2022-09-01T05:22:46;10.90;99.90
57106;DHT22;62662;56.788;23.942;2022-09-01T05:25:14;11.10;99.90
57106;DHT22;62662;56.788;23.942;2022-09-01T05:27:44;11.10;99.90
57106;DHT22;62662;56.788;23.942;2022-09-01T05:30:19;11.50;99.90
57106;DHT22;62662;56.788;23.942;2022-09-01T05:32:47;11.50;99.90
57106;DHT22;62662;56.788;23.942;2022-09-01T05:35:15;11.50;99.90
57106;DHT22;62662;56.788;23.942;2022-09-01T05:37:42;11.80;99.90
57106;DHT22;62662;56.788;23.942;2022-09-01T05:40:10;11.60;99.90
57106;DHT22;62662;56.788;23.942;2022-09-01T05:42:45;11.60;99.90
57106;DHT22;62662;56.788;23.942;2022-09-01T05:45:14;11.70;99.90
57106;DHT22;62662;56.788;23.942;2022-09-01T05:47:46;11.90;99.90
57106;DHT22;62662;56.788;23.942;2022-09-01T05:50:14;11.70;99.90
57106;DHT22;62662;56.788;23.942;2022-09-01T05:52:43;11.70;99.90
57106;DHT22;62662;56.788;23.942;2022-09-01T05:55:17;11.30;99.90
57106;DHT22;62662;56.788;23.942;2022-09-01T05:57:49;11.00;99.90
57106;DHT22;62662;56.788;23.942;2022-09-01T06:00:17;11.30;99.90
57106;DHT22;62662;56.788;23.942;2022-09-01T06:02:45;11.20;99.90
57106;DHT22;62662;56.788;23.942;2022-09-01T06:05:13;11.30;99.90
57106;DHT22;62662;56.788;23.942;2022-09-01T06:07:42;11.30;99.90
57106;DHT22;62662;56.788;23.942;2022-09-01T06:10:10;11.00;99.90
57106;DHT22;62662;56.788;23.942;2022-09-01T06:12:39;11.50;99.90
57106;DHT22;62662;56.788;23.942;2022-09-01T06:15:06;11.70;99.90
57106;DHT22;62662;56.788;23.942;2022-09-01T06:17:42;11.90;99.90
57106;DHT22;62662;56.788;23.942;2022-09-01T06:20:10;11.80;99.90
57106;DHT22;62662;56.788;23.942;2022-09-01T06:22:39;12.10;99.90
57106;DHT22;62662;56.788;23.942;2022-09-01T06:25:07;12.30;99.90
57106;DHT22;62662;56.788;23.942;2022-09-01T06:27:38;12.50;99.90
57106;DHT22;62662;56.788;23.942;2022-09-01T06:30:09;12.80;99.90
57106;DHT22;62662;56.788;23.942;2022-09-01T06:32:59;13.20;99.90
57106;DHT22;62662;56.788;23.942;2022-09-01T06:36:01;13.20;99.90
57106;DHT22;62662;56.788;23.942;2022-09-01T06:38:49;13.00;99.90
57106;DHT22;62662;56.788;23.942;2022-09-01T06:41:38;13.00;99.90
57106;DHT22;62662;56.788;23.942;2022-09-01T06:48:49;12.70;99.90
57106;DHT22;62662;56.788;23.942;2022-09-01T06:51:42;13.10;99.90
57106;DHT22;62662;56.788;23.942;2022-09-01T06:54:55;12.70;99.90
57106;DHT22;62662;56.788;23.942;2022-09-01T06:57:35;12.60;99.90
57106;DHT22;62662;56.788;23.942;2022-09-01T07:06:42;12.60;99.90
57106;DHT22;62662;56.788;23.942;2022-09-01T07:09:40;13.30;99.90
57106;DHT22;62662;56.788;23.942;2022-09-01T07:12:30;13.50;99.90
57106;DHT22;62662;56.788;23.942;2022-09-01T07:15:00;13.10;99.90
57106;DHT22;62662;56.788;23.942;2022-09-01T07:17:55;12.90;99.90
57106;DHT22;62662;56.788;23.942;2022-09-01T07:20:29;13.30;99.90
57106;DHT22;62662;56.788;23.942;2022-09-01T07:23:26;13.10;99.90
57106;DHT22;62662;56.788;23.942;2022-09-01T07:26:13;13.20;99.90
57106;DHT22;62662;56.788;23.942;2022-09-01T07:28:56;13.20;99.90
57106;DHT22;62662;56.788;23.942;2022-09-01T07:31:37;13.40;99.90
57106;DHT22;62662;56.788;23.942;2022-09-01T07:34:16;13.70;99.90
57106;DHT22;62662;56.788;23.942;2022-09-01T07:37:06;13.90;99.90
57106;DHT22;62662;56.788;23.942;2022-09-01T07:39:54;13.90;99.90
57106;DHT22;62662;56.788;23.942;2022-09-01T07:42:22;13.80;99.90
57106;DHT22;62662;56.788;23.942;2022-09-01T07:45:11;13.60;99.90
57106;DHT22;62662;56.788;23.942;2022-09-01T07:47:57;13.90;99.90
57106;DHT22;62662;56.788;23.942;2022-09-01T07:51:32;14.20;99.90
57106;DHT22;62662;56.788;23.942;2022-09-01T07:54:40;15.10;99.90
57106;DHT22;62662;56.788;23.942;2022-09-01T07:57:42;15.50;99.90
57106;DHT22;62662;56.788;23.942;2022-09-01T08:00:24;16.20;99.90
57106;DHT22;62662;56.788;23.942;2022-09-01T08:03:35;17.20;99.90
57106;DHT22;62662;56.788;23.942;2022-09-01T08:06:09;17.50;99.90
57106;DHT22;62662;56.788;23.942;2022-09-01T08:09:15;16.40;99.90
57106;DHT22;62662;56.788;23.942;2022-09-01T08:12:08;15.70;99.90
57106;DHT22;62662;56.788;23.942;2022-09-01T08:15:14;15.40;99.90
57106;DHT22;62662;56.788;23.942;2022-09-01T08:18:28;15.30;99.90
57106;DHT22;62662;56.788;23.942;2022-09-01T08:21:26;15.00;99.90
57106;DHT22;62662;56.788;23.942;2022-09-01T08:24:26;14.70;99.90
57106;DHT22;62662;56.788;23.942;2022-09-01T08:26:56;14.70;99.90
57106;DHT22;62662;56.788;23.942;2022-09-01T08:29:25;14.80;99.90
57106;DHT22;62662;56.788;23.942;2022-09-01T08:31:53;15.70;99.90
57106;DHT22;62662;56.788;23.942;2022-09-01T08:34:25;18.40;99.90
57106;DHT22;62662;56.788;23.942;2022-09-01T08:36:53;20.90;99.90
57106;DHT22;62662;56.788;23.942;2022-09-01T08:39:27;23.40;99.50
57106;DHT22;62662;56.788;23.942;2022-09-01T08:47:36;23.40;97.70
57106;DHT22;62662;56.788;23.942;2022-09-01T08:50:25;22.80;97.90
57106;DHT22;62662;56.788;23.942;2022-09-01T08:53:04;21.20;98.50
57106;DHT22;62662;56.788;23.942;2022-09-01T08:55:41;19.40;99.90
57106;DHT22;62662;56.788;23.942;2022-09-01T08:58:14;18.70;99.90
57106;DHT22;62662;56.788;23.942;2022-09-01T09:01:01;18.10;99.90
57106;DHT22;62662;56.788;23.942;2022-09-01T09:04:03;16.80;99.90
57106;DHT22;62662;56.788;23.942;2022-09-01T09:06:40;16.70;99.90
57106;DHT22;62662;56.788;23.942;2022-09-01T09:09:09;16.90;99.90
57106;DHT22;62662;56.788;23.942;2022-09-01T09:17:08;21.30;99.90
57106;DHT22;62662;56.788;23.942;2022-09-01T09:19:42;20.80;99.90
57106;DHT22;62662;56.788;23.942;2022-09-01T09:22:15;20.10;99.90
57106;DHT22;62662;56.788;23.942;2022-09-01T09:24:53;19.90;99.90
57106;DHT22;62662;56.788;23.942;2022-09-01T09:27:29;20.50;99.90
57106;DHT22;62662;56.788;23.942;2022-09-01T09:30:08;22.70;99.90
57106;DHT22;62662;56.788;23.942;2022-09-01T09:32:55;22.40;97.50
57106;DHT22;62662;56.788;23.942;2022-09-01T09:35:49;23.00;98.00
57106;DHT22;62662;56.788;23.942;2022-09-01T09:38:21;23.90;96.10
57106;DHT22;62662;56.788;23.942;2022-09-01T09:41:04;22.20;98.10
57106;DHT22;62662;56.788;23.942;2022-09-01T09:46:42;21.10;99.40
57106;DHT22;62662;56.788;23.942;2022-09-01T09:52:16;24.20;95.50
57106;DHT22;62662;56.788;23.942;2022-09-01T09:55:03;25.90;93.10
57106;DHT22;62662;56.788;23.942;2022-09-01T09:57:31;25.60;90.00
57106;DHT22;62662;56.788;23.942;2022-09-01T10:00:16;25.30;90.30
57106;DHT22;62662;56.788;23.942;2022-09-01T10:03:00;25.80;87.20
57106;DHT22;62662;56.788;23.942;2022-09-01T10:05:43;24.90;84.90
57106;DHT22;62662;56.788;23.942;2022-09-01T10:08:14;21.30;91.50
57106;DHT22;62662;56.788;23.942;2022-09-01T10:11:07;20.90;92.50
57106;DHT22;62662;56.788;23.942;2022-09-01T10:13:35;22.30;91.70
57106;DHT22;62662;56.788;23.942;2022-09-01T10:16:08;20.20;93.50
57106;DHT22;62662;56.788;23.942;2022-09-01T10:18:48;21.10;93.00
57106;DHT22;62662;56.788;23.942;2022-09-01T10:21:37;22.60;91.30
57106;DHT22;62662;56.788;23.942;2022-09-01T10:27:24;23.90;88.20
57106;DHT22;62662;56.788;23.942;2022-09-01T10:30:06;24.40;87.10
57106;DHT22;62662;56.788;23.942;2022-09-01T10:32:48;23.50;86.60
57106;DHT22;62662;56.788;23.942;2022-09-01T10:35:31;22.50;87.70
57106;DHT22;62662;56.788;23.942;2022-09-01T10:41:16;22.80;86.00
57106;DHT22;62662;56.788;23.942;2022-09-01T10:44:17;22.50;89.00
57106;DHT22;62662;56.788;23.942;2022-09-01T10:47:00;20.70;89.90
57106;DHT22;62662;56.788;23.942;2022-09-01T10:52:02;17.90;94.50
57106;DHT22;62662;56.788;23.942;2022-09-01T11:05:58;16.80;97.90
57106;DHT22;62662;56.788;23.942;2022-09-01T11:08:45;16.10;99.90
57106;DHT22;62662;56.788;23.942;2022-09-01T11:11:42;17.30;98.60
57106;DHT22;62662;56.788;23.942;2022-09-01T11:14:25;18.20;96.30
57106;DHT22;62662;56.788;23.942;2022-09-01T11:17:54;17.00;96.40
57106;DHT22;62662;56.788;23.942;2022-09-01T11:20:30;18.10;96.00
57106;DHT22;62662;56.788;23.942;2022-09-01T11:23:31;20.20;94.80
57106;DHT22;62662;56.788;23.942;2022-09-01T11:31:46;19.00;94.10
57106;DHT22;62662;56.788;23.942;2022-09-01T11:34:22;19.90;94.90
57106;DHT22;62662;56.788;23.942;2022-09-01T11:36:58;20.80;92.50
57106;DHT22;62662;56.788;23.942;2022-09-01T11:39:52;21.50;92.40
57106;DHT22;62662;56.788;23.942;2022-09-01T11:42:36;20.60;92.70
57106;DHT22;62662;56.788;23.942;2022-09-01T11:45:31;20.80;93.10
57106;DHT22;62662;56.788;23.942;2022-09-01T11:48:13;21.10;91.60
57106;DHT22;62662;56.788;23.942;2022-09-01T11:50:43;21.00;92.70
57106;DHT22;62662;56.788;23.942;2022-09-01T11:53:21;20.30;94.50
57106;DHT22;62662;56.788;23.942;2022-09-01T11:56:09;20.80;93.00
57106;DHT22;62662;56.788;23.942;2022-09-01T11:58:52;18.00;95.00
57106;DHT22;62662;56.788;23.942;2022-09-01T12:10:36;19.30;94.60
57106;DHT22;62662;56.788;23.942;2022-09-01T12:13:24;18.70;95.30
57106;DHT22;62662;56.788;23.942;2022-09-01T12:18:53;17.80;96.10
57106;DHT22;62662;56.788;23.942;2022-09-01T12:21:35;19.10;95.40
57106;DHT22;62662;56.788;23.942;2022-09-01T12:26:43;19.70;94.00
57106;DHT22;62662;56.788;23.942;2022-09-01T12:29:20;18.70;95.30
57106;DHT22;62662;56.788;23.942;2022-09-01T12:31:58;17.60;97.20
57106;DHT22;62662;56.788;23.942;2022-09-01T12:37:24;16.40;98.70
57106;DHT22;62662;56.788;23.942;2022-09-01T12:39:55;16.10;97.60
57106;DHT22;62662;56.788;23.942;2022-09-01T12:42:36;15.80;96.90
57106;DHT22;62662;56.788;23.942;2022-09-01T12:45:10;16.40;97.10
57106;DHT22;62662;56.788;23.942;2022-09-01T12:47:47;16.50;96.80
57106;DHT22;62662;56.788;23.942;2022-09-01T12:53:11;17.20;95.20
57106;DHT22;62662;56.788;23.942;2022-09-01T12:55:59;16.70;94.50
57106;DHT22;62662;56.788;23.942;2022-09-01T12:58:33;16.50;95.90
57106;DHT22;62662;56.788;23.942;2022-09-01T13:01:37;17.50;93.90
57106;DHT22;62662;56.788;23.942;2022-09-01T13:04:33;18.20;92.40
57106;DHT22;62662;56.788;23.942;2022-09-01T13:09:38;16.70;93.60
57106;DHT22;62662;56.788;23.942;2022-09-01T13:12:19;16.60;94.30
57106;DHT22;62662;56.788;23.942;2022-09-01T13:17:43;16.50;94.00
57106;DHT22;62662;56.788;23.942;2022-09-01T13:20:10;16.60;94.80
57106;DHT22;62662;56.788;23.942;2022-09-01T13:22:45;16.40;94.20
57106;DHT22;62662;56.788;23.942;2022-09-01T13:25:20;16.50;94.80
57106;DHT22;62662;56.788;23.942;2022-09-01T13:27:56;17.00;94.30
57106;DHT22;62662;56.788;23.942;2022-09-01T13:30:31;16.80;93.90
57106;DHT22;62662;56.788;23.942;2022-09-01T13:33:06;16.50;94.10
57106;DHT22;62662;56.788;23.942;2022-09-01T13:35:50;16.80;95.30
57106;DHT22;62662;56.788;23.942;2022-09-01T13:39:01;16.80;93.50
57106;DHT22;62662;56.788;23.942;2022-09-01T13:44:30;16.10;94.20
57106;DHT22;62662;56.788;23.942;2022-09-01T13:47:24;16.30;94.20
57106;DHT22;62662;56.788;23.942;2022-09-01T13:50:22;16.20;94.10
57106;DHT22;62662;56.788;23.942;2022-09-01T13:53:14;16.20;94.30
57106;DHT22;62662;56.788;23.942;2022-09-01T13:58:36;16.10;93.60
57106;DHT22;62662;56.788;23.942;2022-09-01T14:01:06;16.00;93.90
57106;DHT22;62662;56.788;23.942;2022-09-01T14:03:34;16.30;93.90
57106;DHT22;62662;56.788;23.942;2022-09-01T14:06:06;15.60;93.30
57106;DHT22;62662;56.788;23.942;2022-09-01T14:08:43;15.80;93.40
57106;DHT22;62662;56.788;23.942;2022-09-01T14:11:20;15.40;93.60
57106;DHT22;62662;56.788;23.942;2022-09-01T14:13:53;15.50;92.90
57106;DHT22;62662;56.788;23.942;2022-09-01T14:16:27;16.00;94.50
57106;DHT22;62662;56.788;23.942;2022-09-01T14:18:58;16.00;94.20
57106;DHT22;62662;56.788;23.942;2022-09-01T14:21:32;15.80;94.40
57106;DHT22;62662;56.788;23.942;2022-09-01T14:24:03;15.10;94.00
57106;DHT22;62662;56.788;23.942;2022-09-01T14:26:31;15.50;94.60
57106;DHT22;62662;56.788;23.942;2022-09-01T14:29:05;15.40;94.40
57106;DHT22;62662;56.788;23.942;2022-09-01T14:31:34;15.10;94.70
57106;DHT22;62662;56.788;23.942;2022-09-01T14:34:04;15.30;94.20
57106;DHT22;62662;56.788;23.942;2022-09-01T14:36:32;15.20;94.80
57106;DHT22;62662;56.788;23.942;2022-09-01T14:39:00;15.60;95.50
57106;DHT22;62662;56.788;23.942;2022-09-01T14:41:28;15.50;94.00
57106;DHT22;62662;56.788;23.942;2022-09-01T14:43:58;15.30;94.80
57106;DHT22;62662;56.788;23.942;2022-09-01T14:46:29;15.30;93.90
57106;DHT22;62662;56.788;23.942;2022-09-01T14:49:06;15.30;94.70
57106;DHT22;62662;56.788;23.942;2022-09-01T14:51:35;15.30;95.40
57106;DHT22;62662;56.788;23.942;2022-09-01T14:54:25;15.30;95.90
57106;DHT22;62662;56.788;23.942;2022-09-01T14:56:52;15.20;95.60
57106;DHT22;62662;56.788;23.942;2022-09-01T14:59:40;15.00;96.10
57106;DHT22;62662;56.788;23.942;2022-09-01T15:02:08;15.10;96.40
57106;DHT22;62662;56.788;23.942;2022-09-01T15:04:37;15.10;95.40
57106;DHT22;62662;56.788;23.942;2022-09-01T15:07:05;15.10;95.30
57106;DHT22;62662;56.788;23.942;2022-09-01T15:09:33;15.30;96.10
57106;DHT22;62662;56.788;23.942;2022-09-01T15:12:03;15.10;95.90
57106;DHT22;62662;56.788;23.942;2022-09-01T15:14:31;15.10;96.10
57106;DHT22;62662;56.788;23.942;2022-09-01T15:17:01;14.90;96.00
57106;DHT22;62662;56.788;23.942;2022-09-01T15:19:31;14.90;95.20
57106;DHT22;62662;56.788;23.942;2022-09-01T15:21:58;14.90;95.20
57106;DHT22;62662;56.788;23.942;2022-09-01T15:24:26;14.90;94.70
57106;DHT22;62662;56.788;23.942;2022-09-01T15:26:56;14.90;95.00
57106;DHT22;62662;56.788;23.942;2022-09-01T15:29:25;15.00;95.60
57106;DHT22;62662;56.788;23.942;2022-09-01T15:31:52;14.80;95.40
57106;DHT22;62662;56.788;23.942;2022-09-01T15:34:20;14.70;95.40
57106;DHT22;62662;56.788;23.942;2022-09-01T15:36:47;14.70;95.40
57106;DHT22;62662;56.788;23.942;2022-09-01T15:39:15;14.70;95.50
57106;DHT22;62662;56.788;23.942;2022-09-01T15:41:43;14.60;95.80
57106;DHT22;62662;56.788;23.942;2022-09-01T15:44:10;14.50;96.10
57106;DHT22;62662;56.788;23.942;2022-09-01T15:46:38;14.50;95.70
57106;DHT22;62662;56.788;23.942;2022-09-01T15:49:11;14.50;95.70
57106;DHT22;62662;56.788;23.942;2022-09-01T15:51:43;14.50;96.50
57106;DHT22;62662;56.788;23.942;2022-09-01T15:54:13;14.50;96.10
57106;DHT22;62662;56.788;23.942;2022-09-01T15:56:40;14.30;95.90
57106;DHT22;62662;56.788;23.942;2022-09-01T15:59:09;14.20;96.60
57106;DHT22;62662;56.788;23.942;2022-09-01T16:01:40;14.20;96.30
57106;DHT22;62662;56.788;23.942;2022-09-01T16:04:10;14.20;96.40
57106;DHT22;62662;56.788;23.942;2022-09-01T16:06:47;14.20;96.80
57106;DHT22;62662;56.788;23.942;2022-09-01T16:09:16;14.50;97.10
57106;DHT22;62662;56.788;23.942;2022-09-01T16:11:45;14.10;97.70
57106;DHT22;62662;56.788;23.942;2022-09-01T16:14:12;14.10;97.70
57106;DHT22;62662;56.788;23.942;2022-09-01T16:17:44;13.90;98.30
57106;DHT22;62662;56.788;23.942;2022-09-01T16:19:53;13.90;98.60
57106;DHT22;62662;56.788;23.942;2022-09-01T16:24:52;13.80;99.20
57106;DHT22;62662;56.788;23.942;2022-09-01T16:27:22;13.70;99.50
57106;DHT22;62662;56.788;23.942;2022-09-01T16:29:55;13.70;99.30
57106;DHT22;62662;56.788;23.942;2022-09-01T16:32:24;13.50;99.70
57106;DHT22;62662;56.788;23.942;2022-09-01T16:34:52;13.60;99.90
57106;DHT22;62662;56.788;23.942;2022-09-01T16:37:26;13.40;99.90
57106;DHT22;62662;56.788;23.942;2022-09-01T16:40:11;13.40;99.90
57106;DHT22;62662;56.788;23.942;2022-09-01T16:45:42;13.50;99.90
57106;DHT22;62662;56.788;23.942;2022-09-01T16:56:13;13.20;99.90
57106;DHT22;62662;56.788;23.942;2022-09-01T17:04:13;12.30;99.90
57106;DHT22;62662;56.788;23.942;2022-09-01T17:07:02;12.20;99.90
57106;DHT22;62662;56.788;23.942;2022-09-01T17:09:43;12.20;99.90
57106;DHT22;62662;56.788;23.942;2022-09-01T17:15:14;12.10;99.90
57106;DHT22;62662;56.788;23.942;2022-09-01T17:18:06;12.20;99.90
57106;DHT22;62662;56.788;23.942;2022-09-01T17:20:53;12.10;99.90
57106;DHT22;62662;56.788;23.942;2022-09-01T17:23:28;11.90;99.90
57106;DHT22;62662;56.788;23.942;2022-09-01T17:26:00;11.80;99.90
57106;DHT22;62662;56.788;23.942;2022-09-01T17:28:42;11.80;99.90
57106;DHT22;62662;56.788;23.942;2022-09-01T17:31:16;11.70;99.90
57106;DHT22;62662;56.788;23.942;2022-09-01T17:36:19;11.50;99.90
57106;DHT22;62662;56.788;23.942;2022-09-01T17:42:22;11.40;99.90
57106;DHT22;62662;56.788;23.942;2022-09-01T17:47:44;11.30;99.90
57106;DHT22;62662;56.788;23.942;2022-09-01T17:56:02;11.00;99.90
57106;DHT22;62662;56.788;23.942;2022-09-01T18:01:27;10.90;99.90
57106;DHT22;62662;56.788;23.942;2022-09-01T18:06:57;11.00;99.90
57106;DHT22;62662;56.788;23.942;2022-09-01T18:09:31;11.20;99.90
57106;DHT22;62662;56.788;23.942;2022-09-01T18:12:04;11.10;99.90
57106;DHT22;62662;56.788;23.942;2022-09-01T18:15:47;11.10;99.90
57106;DHT22;62662;56.788;23.942;2022-09-01T18:18:04;11.20;99.90
57106;DHT22;62662;56.788;23.942;2022-09-01T18:20:44;11.20;99.90
57106;DHT22;62662;56.788;23.942;2022-09-01T18:23:15;11.20;99.90
57106;DHT22;62662;56.788;23.942;2022-09-01T18:25:50;11.00;99.90
57106;DHT22;62662;56.788;23.942;2022-09-01T18:28:19;11.00;99.90
57106;DHT22;62662;56.788;23.942;2022-09-01T18:39:32;10.40;99.90
57106;DHT22;62662;56.788;23.942;2022-09-01T18:48:02;10.00;99.90
57106;DHT22;62662;56.788;23.942;2022-09-01T18:50:33;10.10;99.90
57106;DHT22;62662;56.788;23.942;2022-09-01T18:53:21;10.00;99.90
57106;DHT22;62662;56.788;23.942;2022-09-01T18:56:07;10.10;99.90
57106;DHT22;62662;56.788;23.942;2022-09-01T18:59:07;10.20;99.90
57106;DHT22;62662;56.788;23.942;2022-09-01T19:01:47;10.20;99.90
57106;DHT22;62662;56.788;23.942;2022-09-01T19:04:31;10.40;99.90
57106;DHT22;62662;56.788;23.942;2022-09-01T19:07:34;10.40;99.90
57106;DHT22;62662;56.788;23.942;2022-09-01T19:10:29;10.40;99.90
57106;DHT22;62662;56.788;23.942;2022-09-01T19:13:30;10.30;99.90
57106;DHT22;62662;56.788;23.942;2022-09-01T19:16:15;10.40;99.90
57106;DHT22;62662;56.788;23.942;2022-09-01T19:19:31;10.40;99.90
57106;DHT22;62662;56.788;23.942;2022-09-01T19:22:00;10.40;99.90
57106;DHT22;62662;56.788;23.942;2022-09-01T19:24:46;10.40;99.90
57106;DHT22;62662;56.788;23.942;2022-09-01T19:27:29;10.40;99.90
57106;DHT22;62662;56.788;23.942;2022-09-01T19:30:02;10.50;99.90
57106;DHT22;62662;56.788;23.942;2022-09-01T19:32:31;10.40;99.90
57106;DHT22;62662;56.788;23.942;2022-09-01T19:35:09;10.30;99.90
57106;DHT22;62662;56.788;23.942;2022-09-01T19:37:39;10.30;99.90
57106;DHT22;62662;56.788;23.942;2022-09-01T19:40:07;10.30;99.90